sensor_id;sensor_type;location;lat;lon;timestamp;pressure;altitude;pressure_sealevel;temperature;humidity
41230;BME280;26964;50.428;19.218;2023-12-20T00:00:06;1013.3;;;6.1;62.2
41230;BME280;26964;50.428;19.218;2023-12-20T00:01:06;1013.2;;;6.1;62.3
41230;BME280;26964;50.428;19.218;2023-12-20T00:02:05;1013.2;;;6.1;62.3
41230;BME280;26964;50.428;19.218;2023-12-20T00:03:08;1013.1;;;6.1;62.3
41230;BME280;26964;50.428;19.218;2023-12-20T00:04:06;1013.3;;;6.1;62.3
41230;BME280;26964;50.428;19.218;2023-12-20T00:05:06;1013.3;;;6.0;62.3
41230;BME280;26964;50.428;19.218;2023-12-20T00:06:06;1013.3;;;6.0;62.4
41230;BME280;26964;50.428;19.218;2023-12-20T00:07:06;1013.1;;;6.0;62.4
41230;BME280;26964;50.428;19.218;2023-12-20T00:08:05;1013.1;;;6.0;62.5
41230;BME280;26964;50.428;19.218;2023-12-20T00:09:06;1013.2;;;6.0;62.5
41230;BME280;26964;50.428;19.218;2023-12-20T00:10:05;1013.0;;;6.0;62.6
41230;BME280;26964;50.428;19.218;2023-12-20T00:11:06;1013.2;;;6.0;62.6
41230;BME280;26964;50.428;19.218;2023-12-20T00:12:05;1013.1;;;5.9;62.6
41230;BME280;26964;50.428;19.218;2023-12-20T00:13:06;1013.1;;;5.9;62.7
41230;BME280;26964;50.428;19.218;2023-12-20T00:14:06;1013.1;;;5.9;62.7
41230;BME280;26964;50.428;19.218;2023-12-20T00:15:05;1013.0;;;5.9;62.7
41230;BME280;26964;50.428;19.218;2023-12-20T00:16:05;1013.1;;;5.9;62.8
41230;BME280;26964;50.428;19.218;2023-12-20T00:17:06;1013.0;;;5.8;62.8
41230;BME280;26964;50.428;19.218;2023-12-20T00:18:05;1012.9;;;5.8;62.9
41230;BME280;26964;50.428;19.218;2023-12-20T00:19:06;1012.9;;;5.8;62.9
41230;BME280;26964;50.428;19.218;2023-12-20T00:20:06;1012.9;;;5.8;62.9
41230;BME280;26964;50.428;19.218;2023-12-20T00:21:05;1012.9;;;5.8;62.9
41230;BME280;26964;50.428;19.218;2023-12-20T00:22:05;1012.9;;;5.8;63.0
41230;BME280;26964;50.428;19.218;2023-12-20T00:23:05;1012.9;;;5.8;63.0
41230;BME280;26964;50.428;19.218;2023-12-20T00:24:08;1012.8;;;5.8;63.0
41230;BME280;26964;50.428;19.218;2023-12-20T00:25:05;1012.9;;;5.8;63.0
41230;BME280;26964;50.428;19.218;2023-12-20T00:26:05;1012.9;;;5.8;63.1
41230;BME280;26964;50.428;19.218;2023-12-20T00:27:06;1013.1;;;5.8;63.1
41230;BME280;26964;50.428;19.218;2023-12-20T00:28:06;1013.0;;;5.7;63.2
41230;BME280;26964;50.428;19.218;2023-12-20T00:29:05;1013.0;;;5.7;63.2
41230;BME280;26964;50.428;19.218;2023-12-20T00:30:05;1012.9;;;5.7;63.2
41230;BME280;26964;50.428;19.218;2023-12-20T00:31:05;1012.9;;;5.7;63.2
41230;BME280;26964;50.428;19.218;2023-12-20T00:32:05;1012.9;;;5.7;63.2
41230;BME280;26964;50.428;19.218;2023-12-20T00:33:05;1013.0;;;5.7;63.3
41230;BME280;26964;50.428;19.218;2023-12-20T00:34:05;1012.8;;;5.7;63.2
41230;BME280;26964;50.428;19.218;2023-12-20T00:35:05;1012.8;;;5.7;63.3
41230;BME280;26964;50.428;19.218;2023-12-20T00:36:05;1012.8;;;5.7;63.3
41230;BME280;26964;50.428;19.218;2023-12-20T00:37:05;1012.9;;;5.7;63.3
41230;BME280;26964;50.428;19.218;2023-12-20T00:38:06;1012.9;;;5.7;63.3
41230;BME280;26964;50.428;19.218;2023-12-20T00:39:05;1013.0;;;5.7;63.3
41230;BME280;26964;50.428;19.218;2023-12-20T00:40:06;1013.1;;;5.7;63.4
41230;BME280;26964;50.428;19.218;2023-12-20T00:41:05;1013.1;;;5.7;63.4
41230;BME280;26964;50.428;19.218;2023-12-20T00:42:05;1013.0;;;5.7;63.4
41230;BME280;26964;50.428;19.218;2023-12-20T00:43:05;1013.0;;;5.7;63.4
41230;BME280;26964;50.428;19.218;2023-12-20T00:44:05;1013.0;;;5.7;63.4
41230;BME280;26964;50.428;19.218;2023-12-20T00:45:08;1013.0;;;5.7;63.5
41230;BME280;26964;50.428;19.218;2023-12-20T00:46:06;1012.9;;;5.7;63.5
41230;BME280;26964;50.428;19.218;2023-12-20T00:47:06;1013.0;;;5.7;63.5
41230;BME280;26964;50.428;19.218;2023-12-20T00:48:05;1013.1;;;5.7;63.5
41230;BME280;26964;50.428;19.218;2023-12-20T00:49:05;1013.2;;;5.7;63.6
41230;BME280;26964;50.428;19.218;2023-12-20T00:50:06;1013.0;;;5.7;63.6
41230;BME280;26964;50.428;19.218;2023-12-20T00:51:06;1013.2;;;5.7;63.6
41230;BME280;26964;50.428;19.218;2023-12-20T00:52:05;1013.0;;;5.7;63.7
41230;BME280;26964;50.428;19.218;2023-12-20T00:53:05;1013.0;;;5.7;63.6
41230;BME280;26964;50.428;19.218;2023-12-20T00:54:05;1012.9;;;5.7;63.7
41230;BME280;26964;50.428;19.218;2023-12-20T00:55:05;1013.0;;;5.7;63.7
41230;BME280;26964;50.428;19.218;2023-12-20T00:56:05;1012.9;;;5.7;63.7
41230;BME280;26964;50.428;19.218;2023-12-20T00:57:05;1013.0;;;5.7;63.8
41230;BME280;26964;50.428;19.218;2023-12-20T00:58:05;1013.0;;;5.7;63.8
41230;BME280;26964;50.428;19.218;2023-12-20T00:59:05;1013.0;;;5.7;63.8
41230;BME280;26964;50.428;19.218;2023-12-20T01:00:06;1013.1;;;5.7;63.8
41230;BME280;26964;50.428;19.218;2023-12-20T01:01:05;1013.1;;;5.6;63.8
41230;BME280;26964;50.428;19.218;2023-12-20T01:02:06;1012.9;;;5.6;63.9
41230;BME280;26964;50.428;19.218;2023-12-20T01:03:05;1012.9;;;5.6;63.9
41230;BME280;26964;50.428;19.218;2023-12-20T01:04:05;1012.8;;;5.6;63.9
41230;BME280;26964;50.428;19.218;2023-12-20T01:05:06;1012.8;;;5.6;63.9
41230;BME280;26964;50.428;19.218;2023-12-20T01:06:10;1012.7;;;5.6;63.9
41230;BME280;26964;50.428;19.218;2023-12-20T01:07:05;1012.5;;;5.6;63.9
41230;BME280;26964;50.428;19.218;2023-12-20T01:08:05;1012.4;;;5.6;64.0
41230;BME280;26964;50.428;19.218;2023-12-20T01:09:05;1012.2;;;5.5;64.0
41230;BME280;26964;50.428;19.218;2023-12-20T01:10:05;1012.3;;;5.5;64.0
41230;BME280;26964;50.428;19.218;2023-12-20T01:11:05;1012.4;;;5.5;64.0
41230;BME280;26964;50.428;19.218;2023-12-20T01:12:05;1012.6;;;5.5;64.0
41230;BME280;26964;50.428;19.218;2023-12-20T01:13:05;1012.7;;;5.5;64.0
41230;BME280;26964;50.428;19.218;2023-12-20T01:14:05;1012.7;;;5.5;64.1
41230;BME280;26964;50.428;19.218;2023-12-20T01:15:05;1012.6;;;5.5;64.1
41230;BME280;26964;50.428;19.218;2023-12-20T01:16:06;1012.7;;;5.5;64.1
41230;BME280;26964;50.428;19.218;2023-12-20T01:17:05;1012.5;;;5.5;64.1
41230;BME280;26964;50.428;19.218;2023-12-20T01:18:05;1012.4;;;5.5;64.1
41230;BME280;26964;50.428;19.218;2023-12-20T01:19:05;1012.3;;;5.5;64.2
41230;BME280;26964;50.428;19.218;2023-12-20T01:20:06;1012.2;;;5.5;64.2
41230;BME280;26964;50.428;19.218;2023-12-20T01:21:05;1012.2;;;5.5;64.2
41230;BME280;26964;50.428;19.218;2023-12-20T01:22:05;1012.2;;;5.5;64.2
41230;BME280;26964;50.428;19.218;2023-12-20T01:23:05;1012.2;;;5.5;64.2
41230;BME280;26964;50.428;19.218;2023-12-20T01:24:05;1012.3;;;5.4;64.2
41230;BME280;26964;50.428;19.218;2023-12-20T01:25:05;1012.3;;;5.5;64.3
41230;BME280;26964;50.428;19.218;2023-12-20T01:26:06;1012.3;;;5.4;64.3
41230;BME280;26964;50.428;19.218;2023-12-20T01:27:10;1012.2;;;5.4;64.3
41230;BME280;26964;50.428;19.218;2023-12-20T01:28:05;1012.3;;;5.4;64.3
41230;BME280;26964;50.428;19.218;2023-12-20T01:29:05;1012.3;;;5.4;64.3
41230;BME280;26964;50.428;19.218;2023-12-20T01:30:05;1012.3;;;5.4;64.3
41230;BME280;26964;50.428;19.218;2023-12-20T01:31:05;1012.3;;;5.4;64.4
41230;BME280;26964;50.428;19.218;2023-12-20T01:32:05;1012.3;;;5.4;64.4
41230;BME280;26964;50.428;19.218;2023-12-20T01:33:05;1012.3;;;5.4;64.4
41230;BME280;26964;50.428;19.218;2023-12-20T01:34:05;1012.3;;;5.4;64.4
41230;BME280;26964;50.428;19.218;2023-12-20T01:35:05;1012.3;;;5.4;64.4
41230;BME280;26964;50.428;19.218;2023-12-20T01:36:05;1012.3;;;5.4;64.5
41230;BME280;26964;50.428;19.218;2023-12-20T01:37:05;1012.2;;;5.4;64.7
41230;BME280;26964;50.428;19.218;2023-12-20T01:38:08;1012.1;;;5.4;64.5
41230;BME280;26964;50.428;19.218;2023-12-20T01:39:05;1012.0;;;5.4;64.5
41230;BME280;26964;50.428;19.218;2023-12-20T01:40:05;1011.9;;;5.4;64.5
41230;BME280;26964;50.428;19.218;2023-12-20T01:41:06;1011.8;;;5.4;64.5
41230;BME280;26964;50.428;19.218;2023-12-20T01:42:04;1011.9;;;5.4;64.5
41230;BME280;26964;50.428;19.218;2023-12-20T01:43:08;1012.0;;;5.4;64.5
41230;BME280;26964;50.428;19.218;2023-12-20T01:44:05;1012.0;;;5.4;64.6
41230;BME280;26964;50.428;19.218;2023-12-20T01:45:05;1012.0;;;5.4;64.6
41230;BME280;26964;50.428;19.218;2023-12-20T01:46:05;1012.0;;;5.4;64.6
41230;BME280;26964;50.428;19.218;2023-12-20T01:47:08;1012.1;;;5.4;64.6
41230;BME280;26964;50.428;19.218;2023-12-20T01:48:05;1012.1;;;5.4;64.6
41230;BME280;26964;50.428;19.218;2023-12-20T01:49:05;1012.1;;;5.4;64.6
41230;BME280;26964;50.428;19.218;2023-12-20T01:50:06;1012.1;;;5.4;64.6
41230;BME280;26964;50.428;19.218;2023-12-20T01:51:05;1012.2;;;5.4;64.6
41230;BME280;26964;50.428;19.218;2023-12-20T01:52:05;1012.2;;;5.4;64.7
41230;BME280;26964;50.428;19.218;2023-12-20T01:53:08;1012.2;;;5.4;64.6
41230;BME280;26964;50.428;19.218;2023-12-20T01:54:05;1012.2;;;5.4;64.7
41230;BME280;26964;50.428;19.218;2023-12-20T01:55:06;1012.1;;;5.4;64.7
41230;BME280;26964;50.428;19.218;2023-12-20T01:56:05;1012.2;;;5.4;64.7
41230;BME280;26964;50.428;19.218;2023-12-20T01:57:05;1012.4;;;5.4;64.7
41230;BME280;26964;50.428;19.218;2023-12-20T01:58:05;1012.5;;;5.4;64.7
41230;BME280;26964;50.428;19.218;2023-12-20T01:59:04;1012.6;;;5.4;64.7
41230;BME280;26964;50.428;19.218;2023-12-20T02:00:06;1012.4;;;5.4;64.7
41230;BME280;26964;50.428;19.218;2023-12-20T02:01:04;1012.4;;;5.4;64.8
41230;BME280;26964;50.428;19.218;2023-12-20T02:02:05;1012.3;;;5.4;64.8
41230;BME280;26964;50.428;19.218;2023-12-20T02:03:05;1012.2;;;5.4;64.8
41230;BME280;26964;50.428;19.218;2023-12-20T02:04:04;1012.2;;;5.4;64.8
41230;BME280;26964;50.428;19.218;2023-12-20T02:05:05;1012.3;;;5.4;64.8
41230;BME280;26964;50.428;19.218;2023-12-20T02:06:05;1012.3;;;5.4;64.8
41230;BME280;26964;50.428;19.218;2023-12-20T02:07:05;1012.2;;;5.4;64.8
41230;BME280;26964;50.428;19.218;2023-12-20T02:08:07;1012.2;;;5.4;64.8
41230;BME280;26964;50.428;19.218;2023-12-20T02:09:05;1012.0;;;5.4;64.8
41230;BME280;26964;50.428;19.218;2023-12-20T02:10:06;1012.0;;;5.4;64.8
41230;BME280;26964;50.428;19.218;2023-12-20T02:11:05;1011.9;;;5.4;64.8
41230;BME280;26964;50.428;19.218;2023-12-20T02:12:05;1011.9;;;5.4;64.8
41230;BME280;26964;50.428;19.218;2023-12-20T02:13:05;1012.0;;;5.4;64.8
41230;BME280;26964;50.428;19.218;2023-12-20T02:14:05;1012.0;;;5.4;64.8
41230;BME280;26964;50.428;19.218;2023-12-20T02:15:06;1011.9;;;5.4;64.8
41230;BME280;26964;50.428;19.218;2023-12-20T02:16:05;1011.9;;;5.4;64.9
41230;BME280;26964;50.428;19.218;2023-12-20T02:17:05;1011.9;;;5.4;64.9
41230;BME280;26964;50.428;19.218;2023-12-20T02:18:05;1011.9;;;5.4;64.9
41230;BME280;26964;50.428;19.218;2023-12-20T02:19:14;1011.8;;;5.4;64.9
41230;BME280;26964;50.428;19.218;2023-12-20T02:20:06;1011.8;;;5.4;64.9
41230;BME280;26964;50.428;19.218;2023-12-20T02:21:05;1011.7;;;5.4;64.9
41230;BME280;26964;50.428;19.218;2023-12-20T02:22:06;1011.7;;;5.4;64.9
41230;BME280;26964;50.428;19.218;2023-12-20T02:23:05;1011.7;;;5.4;64.9
41230;BME280;26964;50.428;19.218;2023-12-20T02:24:05;1011.7;;;5.4;64.9
41230;BME280;26964;50.428;19.218;2023-12-20T02:25:05;1011.7;;;5.4;64.9
41230;BME280;26964;50.428;19.218;2023-12-20T02:26:05;1011.6;;;5.4;64.9
41230;BME280;26964;50.428;19.218;2023-12-20T02:27:06;1011.7;;;5.4;64.9
41230;BME280;26964;50.428;19.218;2023-12-20T02:28:05;1011.7;;;5.4;64.9
41230;BME280;26964;50.428;19.218;2023-12-20T02:29:08;1011.7;;;5.4;64.9
41230;BME280;26964;50.428;19.218;2023-12-20T02:30:06;1011.7;;;5.4;64.9
41230;BME280;26964;50.428;19.218;2023-12-20T02:31:05;1011.9;;;5.4;64.9
41230;BME280;26964;50.428;19.218;2023-12-20T02:32:05;1012.0;;;5.4;64.9
41230;BME280;26964;50.428;19.218;2023-12-20T02:33:10;1011.9;;;5.4;64.9
41230;BME280;26964;50.428;19.218;2023-12-20T02:34:05;1011.8;;;5.4;64.9
41230;BME280;26964;50.428;19.218;2023-12-20T02:35:05;1011.9;;;5.4;64.9
41230;BME280;26964;50.428;19.218;2023-12-20T02:36:06;1011.8;;;5.4;64.9
41230;BME280;26964;50.428;19.218;2023-12-20T02:37:04;1011.9;;;5.4;65.0
41230;BME280;26964;50.428;19.218;2023-12-20T02:38:05;1011.9;;;5.4;65.0
41230;BME280;26964;50.428;19.218;2023-12-20T02:39:05;1012.0;;;5.4;65.0
41230;BME280;26964;50.428;19.218;2023-12-20T02:40:05;1011.9;;;5.4;65.0
41230;BME280;26964;50.428;19.218;2023-12-20T02:41:05;1012.0;;;5.4;65.0
41230;BME280;26964;50.428;19.218;2023-12-20T02:42:04;1011.9;;;5.4;65.0
41230;BME280;26964;50.428;19.218;2023-12-20T02:43:04;1011.8;;;5.4;65.0
41230;BME280;26964;50.428;19.218;2023-12-20T02:44:04;1011.8;;;5.4;65.0
41230;BME280;26964;50.428;19.218;2023-12-20T02:45:05;1011.7;;;5.4;65.0
41230;BME280;26964;50.428;19.218;2023-12-20T02:46:05;1011.7;;;5.4;65.0
41230;BME280;26964;50.428;19.218;2023-12-20T02:47:05;1011.8;;;5.4;65.0
41230;BME280;26964;50.428;19.218;2023-12-20T02:48:05;1011.8;;;5.4;65.0
41230;BME280;26964;50.428;19.218;2023-12-20T02:49:07;1011.9;;;5.4;65.0
41230;BME280;26964;50.428;19.218;2023-12-20T02:50:08;1012.0;;;5.4;65.0
41230;BME280;26964;50.428;19.218;2023-12-20T02:51:05;1012.0;;;5.4;64.9
41230;BME280;26964;50.428;19.218;2023-12-20T02:52:05;1011.9;;;5.4;64.9
41230;BME280;26964;50.428;19.218;2023-12-20T02:53:05;1011.8;;;5.4;65.0
41230;BME280;26964;50.428;19.218;2023-12-20T02:54:05;1011.8;;;5.4;65.0
41230;BME280;26964;50.428;19.218;2023-12-20T02:55:05;1011.8;;;5.4;64.9
41230;BME280;26964;50.428;19.218;2023-12-20T02:56:05;1011.8;;;5.4;64.9
41230;BME280;26964;50.428;19.218;2023-12-20T02:57:05;1011.8;;;5.4;65.0
41230;BME280;26964;50.428;19.218;2023-12-20T02:58:05;1011.7;;;5.4;65.0
41230;BME280;26964;50.428;19.218;2023-12-20T02:59:05;1011.8;;;5.4;65.0
41230;BME280;26964;50.428;19.218;2023-12-20T03:00:08;1011.8;;;5.4;65.0
41230;BME280;26964;50.428;19.218;2023-12-20T03:01:05;1011.7;;;5.4;65.0
41230;BME280;26964;50.428;19.218;2023-12-20T03:02:05;1011.7;;;5.4;65.0
41230;BME280;26964;50.428;19.218;2023-12-20T03:03:05;1011.7;;;5.4;65.0
41230;BME280;26964;50.428;19.218;2023-12-20T03:04:05;1011.6;;;5.4;65.0
41230;BME280;26964;50.428;19.218;2023-12-20T03:05:05;1011.6;;;5.3;65.0
41230;BME280;26964;50.428;19.218;2023-12-20T03:06:05;1011.7;;;5.3;65.0
41230;BME280;26964;50.428;19.218;2023-12-20T03:07:05;1011.7;;;5.3;65.0
41230;BME280;26964;50.428;19.218;2023-12-20T03:08:05;1011.7;;;5.3;65.0
41230;BME280;26964;50.428;19.218;2023-12-20T03:09:05;1011.7;;;5.3;65.1
41230;BME280;26964;50.428;19.218;2023-12-20T03:10:06;1011.5;;;5.3;65.0
41230;BME280;26964;50.428;19.218;2023-12-20T03:11:10;1011.5;;;5.3;65.0
41230;BME280;26964;50.428;19.218;2023-12-20T03:12:04;1011.6;;;5.3;65.0
41230;BME280;26964;50.428;19.218;2023-12-20T03:13:05;1011.5;;;5.3;65.1
41230;BME280;26964;50.428;19.218;2023-12-20T03:14:05;1011.7;;;5.3;65.1
41230;BME280;26964;50.428;19.218;2023-12-20T03:15:05;1011.7;;;5.2;65.1
41230;BME280;26964;50.428;19.218;2023-12-20T03:16:08;1011.6;;;5.2;65.2
41230;BME280;26964;50.428;19.218;2023-12-20T03:17:05;1011.7;;;5.2;65.2
41230;BME280;26964;50.428;19.218;2023-12-20T03:18:05;1011.6;;;5.2;65.2
41230;BME280;26964;50.428;19.218;2023-12-20T03:19:05;1011.6;;;5.2;65.3
41230;BME280;26964;50.428;19.218;2023-12-20T03:20:06;1011.7;;;5.2;65.3
41230;BME280;26964;50.428;19.218;2023-12-20T03:21:05;1011.7;;;5.2;65.3
41230;BME280;26964;50.428;19.218;2023-12-20T03:22:04;1011.6;;;5.2;65.4
41230;BME280;26964;50.428;19.218;2023-12-20T03:23:05;1011.7;;;5.2;65.4
41230;BME280;26964;50.428;19.218;2023-12-20T03:24:05;1011.6;;;5.2;65.5
41230;BME280;26964;50.428;19.218;2023-12-20T03:25:04;1011.7;;;5.1;65.5
41230;BME280;26964;50.428;19.218;2023-12-20T03:26:06;1011.7;;;5.1;65.4
41230;BME280;26964;50.428;19.218;2023-12-20T03:27:05;1011.6;;;5.1;65.5
41230;BME280;26964;50.428;19.218;2023-12-20T03:28:05;1011.6;;;5.1;65.4
41230;BME280;26964;50.428;19.218;2023-12-20T03:29:05;1011.7;;;5.0;65.5
41230;BME280;26964;50.428;19.218;2023-12-20T03:30:05;1011.6;;;5.0;65.6
41230;BME280;26964;50.428;19.218;2023-12-20T03:31:09;1011.7;;;5.0;65.6
41230;BME280;26964;50.428;19.218;2023-12-20T03:32:05;1011.7;;;5.0;65.6
41230;BME280;26964;50.428;19.218;2023-12-20T03:33:04;1011.6;;;4.9;65.6
41230;BME280;26964;50.428;19.218;2023-12-20T03:34:05;1011.5;;;4.9;65.6
41230;BME280;26964;50.428;19.218;2023-12-20T03:35:05;1011.6;;;4.9;65.6
41230;BME280;26964;50.428;19.218;2023-12-20T03:36:05;1011.5;;;4.9;65.7
41230;BME280;26964;50.428;19.218;2023-12-20T03:37:05;1011.3;;;4.8;65.7
41230;BME280;26964;50.428;19.218;2023-12-20T03:38:05;1011.5;;;4.8;65.7
41230;BME280;26964;50.428;19.218;2023-12-20T03:39:05;1011.4;;;4.8;65.8
41230;BME280;26964;50.428;19.218;2023-12-20T03:40:05;1011.5;;;4.8;65.8
41230;BME280;26964;50.428;19.218;2023-12-20T03:41:06;1011.5;;;4.8;65.8
41230;BME280;26964;50.428;19.218;2023-12-20T03:42:04;1011.6;;;4.7;65.9
41230;BME280;26964;50.428;19.218;2023-12-20T03:43:05;1011.5;;;4.7;65.9
41230;BME280;26964;50.428;19.218;2023-12-20T03:44:04;1011.5;;;4.7;65.7
41230;BME280;26964;50.428;19.218;2023-12-20T03:45:05;1011.5;;;4.6;66.0
41230;BME280;26964;50.428;19.218;2023-12-20T03:46:05;1011.5;;;4.6;66.0
41230;BME280;26964;50.428;19.218;2023-12-20T03:47:05;1011.5;;;4.6;66.1
41230;BME280;26964;50.428;19.218;2023-12-20T03:48:05;1011.5;;;4.6;66.1
41230;BME280;26964;50.428;19.218;2023-12-20T03:49:05;1011.5;;;4.6;66.1
41230;BME280;26964;50.428;19.218;2023-12-20T03:50:05;1011.5;;;4.5;66.1
41230;BME280;26964;50.428;19.218;2023-12-20T03:51:05;1011.6;;;4.5;66.2
41230;BME280;26964;50.428;19.218;2023-12-20T03:52:07;1011.5;;;4.5;66.2
41230;BME280;26964;50.428;19.218;2023-12-20T03:53:05;1011.5;;;4.5;66.3
41230;BME280;26964;50.428;19.218;2023-12-20T03:54:05;1011.5;;;4.4;66.4
41230;BME280;26964;50.428;19.218;2023-12-20T03:55:06;1011.5;;;4.4;66.4
41230;BME280;26964;50.428;19.218;2023-12-20T03:56:05;1011.6;;;4.4;66.4
41230;BME280;26964;50.428;19.218;2023-12-20T03:57:05;1011.7;;;4.4;66.4
41230;BME280;26964;50.428;19.218;2023-12-20T03:58:05;1011.7;;;4.4;66.6
41230;BME280;26964;50.428;19.218;2023-12-20T03:59:05;1011.6;;;4.3;66.6
41230;BME280;26964;50.428;19.218;2023-12-20T04:00:06;1011.5;;;4.3;66.7
41230;BME280;26964;50.428;19.218;2023-12-20T04:01:09;1011.6;;;4.3;66.7
41230;BME280;26964;50.428;19.218;2023-12-20T04:02:05;1011.6;;;4.3;66.7
41230;BME280;26964;50.428;19.218;2023-12-20T04:03:05;1011.5;;;4.2;66.7
41230;BME280;26964;50.428;19.218;2023-12-20T04:04:05;1011.6;;;4.2;66.8
41230;BME280;26964;50.428;19.218;2023-12-20T04:05:05;1011.6;;;4.2;66.7
41230;BME280;26964;50.428;19.218;2023-12-20T04:06:04;1011.5;;;4.2;66.8
41230;BME280;26964;50.428;19.218;2023-12-20T04:07:05;1011.6;;;4.2;66.8
41230;BME280;26964;50.428;19.218;2023-12-20T04:08:05;1011.6;;;4.2;66.8
41230;BME280;26964;50.428;19.218;2023-12-20T04:09:05;1011.5;;;4.1;66.9
41230;BME280;26964;50.428;19.218;2023-12-20T04:10:05;1011.5;;;4.1;67.1
41230;BME280;26964;50.428;19.218;2023-12-20T04:11:04;1011.5;;;4.1;67.0
41230;BME280;26964;50.428;19.218;2023-12-20T04:12:05;1011.6;;;4.1;67.0
41230;BME280;26964;50.428;19.218;2023-12-20T04:13:07;1011.7;;;4.1;67.1
41230;BME280;26964;50.428;19.218;2023-12-20T04:14:05;1011.6;;;4.0;67.1
41230;BME280;26964;50.428;19.218;2023-12-20T04:15:05;1011.6;;;4.0;67.1
41230;BME280;26964;50.428;19.218;2023-12-20T04:16:05;1011.6;;;4.0;67.4
41230;BME280;26964;50.428;19.218;2023-12-20T04:17:04;1011.5;;;4.0;67.2
41230;BME280;26964;50.428;19.218;2023-12-20T04:18:04;1011.6;;;4.0;67.2
41230;BME280;26964;50.428;19.218;2023-12-20T04:19:05;1011.6;;;4.0;67.2
41230;BME280;26964;50.428;19.218;2023-12-20T04:20:05;1011.6;;;4.0;67.3
41230;BME280;26964;50.428;19.218;2023-12-20T04:21:05;1011.7;;;4.0;67.4
41230;BME280;26964;50.428;19.218;2023-12-20T04:22:05;1011.7;;;3.9;67.5
41230;BME280;26964;50.428;19.218;2023-12-20T04:23:05;1011.7;;;3.9;67.4
41230;BME280;26964;50.428;19.218;2023-12-20T04:24:05;1011.7;;;3.9;67.5
41230;BME280;26964;50.428;19.218;2023-12-20T04:25:05;1011.7;;;3.9;67.5
41230;BME280;26964;50.428;19.218;2023-12-20T04:26:05;1011.7;;;3.9;67.6
41230;BME280;26964;50.428;19.218;2023-12-20T04:27:05;1011.7;;;3.9;67.5
41230;BME280;26964;50.428;19.218;2023-12-20T04:28:04;1011.7;;;3.9;67.5
41230;BME280;26964;50.428;19.218;2023-12-20T04:29:05;1011.6;;;3.8;67.6
41230;BME280;26964;50.428;19.218;2023-12-20T04:30:05;1011.6;;;3.8;67.6
41230;BME280;26964;50.428;19.218;2023-12-20T04:31:05;1011.7;;;3.8;67.7
41230;BME280;26964;50.428;19.218;2023-12-20T04:32:05;1011.7;;;3.8;67.7
41230;BME280;26964;50.428;19.218;2023-12-20T04:33:05;1011.7;;;3.8;67.7
41230;BME280;26964;50.428;19.218;2023-12-20T04:34:09;1011.6;;;3.8;67.7
41230;BME280;26964;50.428;19.218;2023-12-20T04:35:05;1011.8;;;3.8;67.9
41230;BME280;26964;50.428;19.218;2023-12-20T04:36:05;1011.6;;;3.8;67.8
41230;BME280;26964;50.428;19.218;2023-12-20T04:37:05;1011.7;;;3.8;67.9
41230;BME280;26964;50.428;19.218;2023-12-20T04:38:05;1011.7;;;3.8;67.9
41230;BME280;26964;50.428;19.218;2023-12-20T04:39:04;1011.6;;;3.7;68.0
41230;BME280;26964;50.428;19.218;2023-12-20T04:40:05;1011.6;;;3.7;68.0
41230;BME280;26964;50.428;19.218;2023-12-20T04:41:05;1011.5;;;3.7;68.0
41230;BME280;26964;50.428;19.218;2023-12-20T04:42:04;1011.6;;;3.7;68.1
41230;BME280;26964;50.428;19.218;2023-12-20T04:43:05;1011.6;;;3.7;68.2
41230;BME280;26964;50.428;19.218;2023-12-20T04:44:05;1011.7;;;3.7;68.1
41230;BME280;26964;50.428;19.218;2023-12-20T04:45:05;1011.6;;;3.7;68.2
41230;BME280;26964;50.428;19.218;2023-12-20T04:46:05;1011.6;;;3.6;68.2
41230;BME280;26964;50.428;19.218;2023-12-20T04:47:05;1011.6;;;3.6;68.2
41230;BME280;26964;50.428;19.218;2023-12-20T04:48:05;1011.6;;;3.6;68.3
41230;BME280;26964;50.428;19.218;2023-12-20T04:49:05;1011.6;;;3.6;68.3
41230;BME280;26964;50.428;19.218;2023-12-20T04:50:05;1011.6;;;3.6;68.4
41230;BME280;26964;50.428;19.218;2023-12-20T04:51:05;1011.6;;;3.6;68.5
41230;BME280;26964;50.428;19.218;2023-12-20T04:52:04;1011.6;;;3.5;68.4
41230;BME280;26964;50.428;19.218;2023-12-20T04:53:05;1011.5;;;3.5;68.5
41230;BME280;26964;50.428;19.218;2023-12-20T04:54:05;1011.6;;;3.5;68.5
41230;BME280;26964;50.428;19.218;2023-12-20T04:55:08;1011.5;;;3.5;68.5
41230;BME280;26964;50.428;19.218;2023-12-20T04:56:05;1011.5;;;3.5;68.7
41230;BME280;26964;50.428;19.218;2023-12-20T04:57:05;1011.5;;;3.5;68.7
41230;BME280;26964;50.428;19.218;2023-12-20T04:58:05;1011.7;;;3.5;68.6
41230;BME280;26964;50.428;19.218;2023-12-20T04:59:05;1011.5;;;3.5;68.7
41230;BME280;26964;50.428;19.218;2023-12-20T05:00:05;1011.6;;;3.5;68.7
41230;BME280;26964;50.428;19.218;2023-12-20T05:01:05;1011.6;;;3.5;68.7
41230;BME280;26964;50.428;19.218;2023-12-20T05:02:05;1011.6;;;3.5;68.9
41230;BME280;26964;50.428;19.218;2023-12-20T05:03:05;1011.6;;;3.5;68.8
41230;BME280;26964;50.428;19.218;2023-12-20T05:04:04;1011.5;;;3.5;68.8
41230;BME280;26964;50.428;19.218;2023-12-20T05:05:04;1011.5;;;3.5;68.8
41230;BME280;26964;50.428;19.218;2023-12-20T05:06:05;1011.5;;;3.5;68.9
41230;BME280;26964;50.428;19.218;2023-12-20T05:07:05;1011.5;;;3.5;68.8
41230;BME280;26964;50.428;19.218;2023-12-20T05:08:04;1011.4;;;3.5;68.9
41230;BME280;26964;50.428;19.218;2023-12-20T05:09:05;1011.4;;;3.5;68.9
41230;BME280;26964;50.428;19.218;2023-12-20T05:10:05;1011.4;;;3.5;69.0
41230;BME280;26964;50.428;19.218;2023-12-20T05:11:05;1011.5;;;3.5;69.0
41230;BME280;26964;50.428;19.218;2023-12-20T05:12:05;1011.4;;;3.5;69.0
41230;BME280;26964;50.428;19.218;2023-12-20T05:13:05;1011.5;;;3.5;69.0
41230;BME280;26964;50.428;19.218;2023-12-20T05:14:05;1011.5;;;3.5;69.1
41230;BME280;26964;50.428;19.218;2023-12-20T05:15:06;1011.4;;;3.5;69.1
41230;BME280;26964;50.428;19.218;2023-12-20T05:16:09;1011.5;;;3.5;69.2
41230;BME280;26964;50.428;19.218;2023-12-20T05:17:05;1011.5;;;3.5;69.2
41230;BME280;26964;50.428;19.218;2023-12-20T05:18:04;1011.4;;;3.5;69.2
41230;BME280;26964;50.428;19.218;2023-12-20T05:19:05;1011.6;;;3.5;69.2
41230;BME280;26964;50.428;19.218;2023-12-20T05:20:05;1011.5;;;3.5;69.2
41230;BME280;26964;50.428;19.218;2023-12-20T05:21:04;1011.4;;;3.5;69.3
41230;BME280;26964;50.428;19.218;2023-12-20T05:22:05;1011.5;;;3.5;69.3
41230;BME280;26964;50.428;19.218;2023-12-20T05:23:04;1011.3;;;3.5;69.3
41230;BME280;26964;50.428;19.218;2023-12-20T05:24:05;1011.4;;;3.5;69.4
41230;BME280;26964;50.428;19.218;2023-12-20T05:25:05;1011.3;;;3.5;69.4
41230;BME280;26964;50.428;19.218;2023-12-20T05:26:05;1011.3;;;3.5;69.4
41230;BME280;26964;50.428;19.218;2023-12-20T05:27:04;1011.4;;;3.5;69.4
41230;BME280;26964;50.428;19.218;2023-12-20T05:28:04;1011.3;;;3.5;69.5
41230;BME280;26964;50.428;19.218;2023-12-20T05:29:05;1011.3;;;3.5;69.5
41230;BME280;26964;50.428;19.218;2023-12-20T05:30:05;1011.3;;;3.5;69.5
41230;BME280;26964;50.428;19.218;2023-12-20T05:31:05;1011.3;;;3.5;69.6
41230;BME280;26964;50.428;19.218;2023-12-20T05:32:04;1011.3;;;3.5;69.6
41230;BME280;26964;50.428;19.218;2023-12-20T05:33:05;1011.3;;;3.5;69.6
41230;BME280;26964;50.428;19.218;2023-12-20T05:34:04;1011.3;;;3.5;69.7
41230;BME280;26964;50.428;19.218;2023-12-20T05:35:04;1011.2;;;3.5;69.7